Etusivu
METAR-TAF:

METAR-TAF

Lentoasemat :

Hawkins Field

Jackson, Mississippi, Yhdysvallat

Leveyspiiri: 32-20-05N, Pituuspiiri: 090-13-21W, korkeus merenpinnasta: 104 m

Tämänhetkinen sää

Tämä raportti tehtiin 38 minuuttia sitten, kello 02.53 UTC
tyyntä
Lämpötila 7°C
Kosteus 76%
Ilmanpaine 1013 hPa
Näkyvyys: 16.1 km
Muutamia pilviä 9500 ft:n korkeudessa

METAR: KHKS 190253Z AUTO 00000KT 10SM FEW095 07/03 A2991 RMK AO2 SLP122 T00720033 50008

Aika: 21:31 (03:31 UTC)

Sääennuste

Tämä raportti tehtiin 4 tuntia ja 11 minuuttia sitten, kello 23.20 UTC
Ennuste voimassa 19. päivästä klo 00 UTC - 19. päivään klo 24 UTC
Tuuli 4 kn pohjoisen/luoteesta
Näkyvyys: 10 km
selkeää

TAF: KHKS 182320Z 1900/1924 34004KT P6SM SKC

Säähavainnot ja -ennusteet yli 4000 lentoasemalta (METAR- ja TAF-raportit).

Käytössä olevat sääasemat on merkitty karttaan keltaisilla ja punaisilla pisteillä.

Aseta hiiri pisteen päälle nähdäksesi sääaseman nimen.

Klikkaa sitten nähdäksesi säähavainnot ja -ennusteet.

Kartan vaihtaminen: klikkaa mustalla rastilla varustettuja vihreitä pisteitä, niin voit zoomata sisään; viivalla varustettua vihreää pistettä, niin voit zoomata ulos tai vihreitä nuolia, niin pääset viereisille kartoille.


METAR-TAF: